sensor_id;sensor_type;location;lat;lon;timestamp;pressure;altitude;pressure_sealevel;temperature;humidity
58072;BME280;60383;46.626;18.866;2023-01-30T00:01:20;101141.22;;;0.31;71.43
58072;BME280;60383;46.626;18.866;2023-01-30T00:03:46;101142.13;;;0.13;71.85
58072;BME280;60383;46.626;18.866;2023-01-30T00:06:11;101141.03;;;0.17;72.06
58072;BME280;60383;46.626;18.866;2023-01-30T00:08:37;101130.09;;;0.01;73.13
58072;BME280;60383;46.626;18.866;2023-01-30T00:11:05;101133.47;;;0.06;73.15
58072;BME280;60383;46.626;18.866;2023-01-30T00:13:30;101140.31;;;0.13;72.98
58072;BME280;60383;46.626;18.866;2023-01-30T00:15:56;101136.09;;;0.08;73.13
58072;BME280;60383;46.626;18.866;2023-01-30T00:18:21;101127.91;;;0.09;72.21
58072;BME280;60383;46.626;18.866;2023-01-30T00:20:47;101134.84;;;-0.04;72.59
58072;BME280;60383;46.626;18.866;2023-01-30T00:23:12;101129.94;;;-0.15;72.81
58072;BME280;60383;46.626;18.866;2023-01-30T00:25:38;101130.22;;;-0.21;73.29
58072;BME280;60383;46.626;18.866;2023-01-30T00:28:03;101123.25;;;-0.06;73.15
58072;BME280;60383;46.626;18.866;2023-01-30T00:30:29;101123.66;;;-0.35;73.11
58072;BME280;60383;46.626;18.866;2023-01-30T00:32:56;101116.97;;;-0.45;74.28
58072;BME280;60383;46.626;18.866;2023-01-30T00:35:21;101120.03;;;-0.34;73.62
58072;BME280;60383;46.626;18.866;2023-01-30T00:37:56;101115.94;;;-0.42;73.97
58072;BME280;60383;46.626;18.866;2023-01-30T00:40:23;101106.94;;;-0.41;74.14
58072;BME280;60383;46.626;18.866;2023-01-30T00:42:48;101111.66;;;-0.27;73.40
58072;BME280;60383;46.626;18.866;2023-01-30T00:45:32;101106.94;;;-0.22;73.55
58072;BME280;60383;46.626;18.866;2023-01-30T00:48:17;101105.50;;;-0.10;73.06
58072;BME280;60383;46.626;18.866;2023-01-30T00:50:42;101099.50;;;-0.36;73.74
58072;BME280;60383;46.626;18.866;2023-01-30T00:53:12;101102.78;;;-0.29;73.83
58072;BME280;60383;46.626;18.866;2023-01-30T00:55:38;101093.06;;;-0.53;74.76
58072;BME280;60383;46.626;18.866;2023-01-30T00:58:04;101091.66;;;-0.41;74.63
58072;BME280;60383;46.626;18.866;2023-01-30T01:00:30;101088.78;;;-0.38;74.24
58072;BME280;60383;46.626;18.866;2023-01-30T01:02:56;101083.41;;;-0.57;75.01
58072;BME280;60383;46.626;18.866;2023-01-30T01:05:21;101083.31;;;-0.55;75.84
58072;BME280;60383;46.626;18.866;2023-01-30T01:07:46;101086.16;;;-0.58;75.15
58072;BME280;60383;46.626;18.866;2023-01-30T01:10:12;101077.81;;;-0.52;75.25
58072;BME280;60383;46.626;18.866;2023-01-30T01:12:41;101076.97;;;-0.73;76.35
58072;BME280;60383;46.626;18.866;2023-01-30T01:15:08;101073.47;;;-0.96;77.20
58072;BME280;60383;46.626;18.866;2023-01-30T01:17:34;101075.84;;;-0.88;77.03
58072;BME280;60383;46.626;18.866;2023-01-30T01:19:59;101070.06;;;-0.79;76.93
58072;BME280;60383;46.626;18.866;2023-01-30T01:22:24;101075.44;;;-0.79;77.33
58072;BME280;60383;46.626;18.866;2023-01-30T01:24:50;101071.19;;;-1.05;76.94
58072;BME280;60383;46.626;18.866;2023-01-30T01:27:15;101068.63;;;-1.08;77.46
58072;BME280;60383;46.626;18.866;2023-01-30T01:29:41;101068.16;;;-0.98;77.18
58072;BME280;60383;46.626;18.866;2023-01-30T01:32:06;101061.84;;;-0.97;77.85
58072;BME280;60383;46.626;18.866;2023-01-30T01:34:32;101066.22;;;-0.94;77.48
58072;BME280;60383;46.626;18.866;2023-01-30T01:36:57;101062.38;;;-0.88;77.24
58072;BME280;60383;46.626;18.866;2023-01-30T01:39:23;101056.63;;;-0.79;76.80
58072;BME280;60383;46.626;18.866;2023-01-30T01:41:48;101051.44;;;-0.65;75.99
58072;BME280;60383;46.626;18.866;2023-01-30T01:44:13;101043.09;;;-0.77;76.63
58072;BME280;60383;46.626;18.866;2023-01-30T01:46:49;101050.63;;;-1.06;77.49
58072;BME280;60383;46.626;18.866;2023-01-30T01:52:12;101047.38;;;-0.94;77.85
58072;BME280;60383;46.626;18.866;2023-01-30T01:55:00;101040.66;;;-0.84;77.60
58072;BME280;60383;46.626;18.866;2023-01-30T01:57:37;101041.41;;;-0.80;77.43
58072;BME280;60383;46.626;18.866;2023-01-30T02:00:12;101037.28;;;-0.89;77.58
58072;BME280;60383;46.626;18.866;2023-01-30T02:02:46;101041.34;;;-0.99;77.96
58072;BME280;60383;46.626;18.866;2023-01-30T02:05:15;101043.31;;;-1.03;78.59
58072;BME280;60383;46.626;18.866;2023-01-30T02:07:49;101033.63;;;-1.07;79.05
58072;BME280;60383;46.626;18.866;2023-01-30T02:10:19;101032.16;;;-0.93;77.95
58072;BME280;60383;46.626;18.866;2023-01-30T02:12:47;101023.81;;;-0.87;77.75
58072;BME280;60383;46.626;18.866;2023-01-30T02:15:13;101023.81;;;-0.87;77.72
58072;BME280;60383;46.626;18.866;2023-01-30T02:17:38;101028.28;;;-0.88;77.79
58072;BME280;60383;46.626;18.866;2023-01-30T02:20:26;101025.59;;;-0.88;78.27
58072;BME280;60383;46.626;18.866;2023-01-30T02:25:56;101016.78;;;-0.91;78.32
58072;BME280;60383;46.626;18.866;2023-01-30T02:36:49;100999.63;;;-0.89;77.56
58072;BME280;60383;46.626;18.866;2023-01-30T02:41:50;100996.78;;;-1.05;78.80
58072;BME280;60383;46.626;18.866;2023-01-30T02:44:42;100986.03;;;-1.25;79.37
58072;BME280;60383;46.626;18.866;2023-01-30T02:47:27;100991.09;;;-1.38;80.11
58072;BME280;60383;46.626;18.866;2023-01-30T02:49:59;100991.09;;;-1.38;80.24
58072;BME280;60383;46.626;18.866;2023-01-30T02:52:28;100988.41;;;-1.38;80.00
58072;BME280;60383;46.626;18.866;2023-01-30T02:54:54;100982.34;;;-1.43;80.48
58072;BME280;60383;46.626;18.866;2023-01-30T02:57:21;100969.72;;;-1.41;80.91
58072;BME280;60383;46.626;18.866;2023-01-30T02:59:51;100972.50;;;-1.43;80.61
58072;BME280;60383;46.626;18.866;2023-01-30T03:11:03;100957.97;;;-1.59;81.03
58072;BME280;60383;46.626;18.866;2023-01-30T03:16:11;100946.19;;;-1.57;81.55
58072;BME280;60383;46.626;18.866;2023-01-30T03:18:41;100939.34;;;-1.43;80.27
58072;BME280;60383;46.626;18.866;2023-01-30T03:21:08;100944.78;;;-1.24;79.65
58072;BME280;60383;46.626;18.866;2023-01-30T03:23:33;100936.19;;;-1.33;79.35
58072;BME280;60383;46.626;18.866;2023-01-30T03:25:59;100930.41;;;-1.23;79.52
58072;BME280;60383;46.626;18.866;2023-01-30T03:28:27;100929.31;;;-1.19;79.60
58072;BME280;60383;46.626;18.866;2023-01-30T03:30:52;100927.56;;;-1.00;78.36
58072;BME280;60383;46.626;18.866;2023-01-30T03:33:18;100920.78;;;-0.89;77.95
58072;BME280;60383;46.626;18.866;2023-01-30T03:35:43;100915.53;;;-0.92;78.10
58072;BME280;60383;46.626;18.866;2023-01-30T03:38:09;100911.06;;;-0.92;77.60
58072;BME280;60383;46.626;18.866;2023-01-30T03:40:35;100902.91;;;-0.90;77.33
58072;BME280;60383;46.626;18.866;2023-01-30T03:43:00;100903.19;;;-0.97;77.46
58072;BME280;60383;46.626;18.866;2023-01-30T03:45:25;100902.91;;;-0.90;77.02
58072;BME280;60383;46.626;18.866;2023-01-30T03:47:51;100897.44;;;-0.89;77.26
58072;BME280;60383;46.626;18.866;2023-01-30T03:50:16;100897.44;;;-0.89;77.18
58072;BME280;60383;46.626;18.866;2023-01-30T03:52:42;100899.28;;;-0.89;76.96
58072;BME280;60383;46.626;18.866;2023-01-30T03:55:08;100900.66;;;-0.81;76.66
58072;BME280;60383;46.626;18.866;2023-01-30T03:57:33;100903.72;;;-0.88;76.60
58072;BME280;60383;46.626;18.866;2023-01-30T03:59:59;100887.66;;;-0.90;76.56
58072;BME280;60383;46.626;18.866;2023-01-30T04:02:24;100894.09;;;-0.94;76.98
58072;BME280;60383;46.626;18.866;2023-01-30T04:04:51;100889.31;;;-1.06;77.66
58072;BME280;60383;46.626;18.866;2023-01-30T04:07:16;100898.22;;;-1.06;77.39
58072;BME280;60383;46.626;18.866;2023-01-30T04:09:42;100886.25;;;-1.18;78.21
58072;BME280;60383;46.626;18.866;2023-01-30T04:12:07;100884.38;;;-1.36;78.82
58072;BME280;60383;46.626;18.866;2023-01-30T04:14:33;100884.66;;;-1.42;78.80
58072;BME280;60383;46.626;18.866;2023-01-30T04:16:59;100885.63;;;-1.64;79.83
58072;BME280;60383;46.626;18.866;2023-01-30T04:19:24;100881.00;;;-1.81;80.79
58072;BME280;60383;46.626;18.866;2023-01-30T04:21:49;100886.59;;;-1.86;81.50
58072;BME280;60383;46.626;18.866;2023-01-30T04:24:15;100877.78;;;-1.69;81.84
58072;BME280;60383;46.626;18.866;2023-01-30T04:26:40;100880.72;;;-1.75;81.35
58072;BME280;60383;46.626;18.866;2023-01-30T04:29:06;100873.16;;;-1.65;80.99
58072;BME280;60383;46.626;18.866;2023-01-30T04:31:31;100874.09;;;-1.66;81.13
58072;BME280;60383;46.626;18.866;2023-01-30T04:33:57;100872.00;;;-1.59;80.07
58072;BME280;60383;46.626;18.866;2023-01-30T04:36:23;100877.16;;;-1.55;80.33
58072;BME280;60383;46.626;18.866;2023-01-30T04:38:48;100873.38;;;-1.70;80.99
58072;BME280;60383;46.626;18.866;2023-01-30T04:41:14;100874.13;;;-1.47;81.37
58072;BME280;60383;46.626;18.866;2023-01-30T04:43:39;100866.16;;;-1.49;79.88
58072;BME280;60383;46.626;18.866;2023-01-30T04:46:04;100869.72;;;-1.48;79.43
58072;BME280;60383;46.626;18.866;2023-01-30T04:48:30;100870.97;;;-1.57;79.69
58072;BME280;60383;46.626;18.866;2023-01-30T04:50:56;100878.38;;;-1.62;79.61
58072;BME280;60383;46.626;18.866;2023-01-30T04:53:22;100870.72;;;-1.71;80.23
58072;BME280;60383;46.626;18.866;2023-01-30T04:55:47;100874.16;;;-1.68;80.13
58072;BME280;60383;46.626;18.866;2023-01-30T04:58:14;100871.34;;;-1.65;80.17
58072;BME280;60383;46.626;18.866;2023-01-30T05:00:40;100870.97;;;-1.57;79.56
58072;BME280;60383;46.626;18.866;2023-01-30T05:03:05;100870.97;;;-1.57;79.49
58072;BME280;60383;46.626;18.866;2023-01-30T05:05:31;100880.31;;;-1.45;78.97
58072;BME280;60383;46.626;18.866;2023-01-30T05:07:57;100876.81;;;-1.47;79.12
58072;BME280;60383;46.626;18.866;2023-01-30T05:10:23;100874.06;;;-1.46;79.19
58072;BME280;60383;46.626;18.866;2023-01-30T05:12:48;100872.78;;;-1.37;79.03
58072;BME280;60383;46.626;18.866;2023-01-30T05:15:13;100874.06;;;-1.46;78.76
58072;BME280;60383;46.626;18.866;2023-01-30T05:17:39;100871.72;;;-1.53;78.91
58072;BME280;60383;46.626;18.866;2023-01-30T05:20:08;100867.22;;;-1.53;79.38
58072;BME280;60383;46.626;18.866;2023-01-30T05:22:34;100871.72;;;-1.53;78.98
58072;BME280;60383;46.626;18.866;2023-01-30T05:24:59;100869.72;;;-1.48;78.83
58072;BME280;60383;46.626;18.866;2023-01-30T05:27:25;100873.41;;;-1.71;79.10
58072;BME280;60383;46.626;18.866;2023-01-30T05:29:50;100872.91;;;-1.80;79.58
58072;BME280;60383;46.626;18.866;2023-01-30T05:32:17;100871.16;;;-1.81;80.06
58072;BME280;60383;46.626;18.866;2023-01-30T05:34:43;100870.59;;;-1.89;80.41
58072;BME280;60383;46.626;18.866;2023-01-30T05:37:09;100868.25;;;-1.76;81.63
58072;BME280;60383;46.626;18.866;2023-01-30T05:39:35;100865.91;;;-1.84;81.30
58072;BME280;60383;46.626;18.866;2023-01-30T05:42:00;100863.75;;;-1.75;81.70
58072;BME280;60383;46.626;18.866;2023-01-30T05:44:26;100863.16;;;-1.62;82.45
58072;BME280;60383;46.626;18.866;2023-01-30T05:46:51;100857.97;;;-1.46;81.31
58072;BME280;60383;46.626;18.866;2023-01-30T05:49:18;100856.28;;;-1.48;81.01
58072;BME280;60383;46.626;18.866;2023-01-30T05:51:43;100856.56;;;-1.35;78.76
58072;BME280;60383;46.626;18.866;2023-01-30T05:54:09;100848.31;;;-1.31;79.98
58072;BME280;60383;46.626;18.866;2023-01-30T05:56:34;100855.06;;;-1.22;77.39
58072;BME280;60383;46.626;18.866;2023-01-30T05:59:00;100853.31;;;-1.42;78.34
58072;BME280;60383;46.626;18.866;2023-01-30T06:01:27;100867.06;;;-1.50;78.06
58072;BME280;60383;46.626;18.866;2023-01-30T06:03:53;100859.03;;;-1.50;78.40
58072;BME280;60383;46.626;18.866;2023-01-30T06:06:19;100854.94;;;-1.58;78.15
58072;BME280;60383;46.626;18.866;2023-01-30T06:08:45;100854.22;;;-1.62;78.22
58072;BME280;60383;46.626;18.866;2023-01-30T06:11:13;100852.06;;;-1.54;77.96
58072;BME280;60383;46.626;18.866;2023-01-30T06:13:39;100843.31;;;-1.38;77.38
58072;BME280;60383;46.626;18.866;2023-01-30T06:16:06;100844.38;;;-1.42;77.43
58072;BME280;60383;46.626;18.866;2023-01-30T06:18:32;100849.31;;;-1.33;76.77
58072;BME280;60383;46.626;18.866;2023-01-30T06:20:58;100840.94;;;-1.46;77.12
58072;BME280;60383;46.626;18.866;2023-01-30T06:23:23;100850.31;;;-1.55;77.80
58072;BME280;60383;46.626;18.866;2023-01-30T06:25:49;100837.31;;;-1.45;77.17
58072;BME280;60383;46.626;18.866;2023-01-30T06:28:17;100843.22;;;-1.37;76.47
58072;BME280;60383;46.626;18.866;2023-01-30T06:30:43;100847.72;;;-1.18;76.28
58072;BME280;60383;46.626;18.866;2023-01-30T06:33:09;100845.03;;;-1.18;76.21
58072;BME280;60383;46.626;18.866;2023-01-30T06:35:37;100846.72;;;-1.16;77.08
58072;BME280;60383;46.626;18.866;2023-01-30T06:38:02;100845.63;;;-0.92;75.20
58072;BME280;60383;46.626;18.866;2023-01-30T06:40:28;100851.81;;;-0.90;75.49
58072;BME280;60383;46.626;18.866;2023-01-30T06:42:54;100845.06;;;-0.99;75.28
58072;BME280;60383;46.626;18.866;2023-01-30T06:45:19;100843.13;;;-0.78;74.55
58072;BME280;60383;46.626;18.866;2023-01-30T06:47:48;100855.91;;;-0.10;72.29
58072;BME280;60383;46.626;18.866;2023-01-30T06:50:15;100852.56;;;0.89;69.70
58072;BME280;60383;46.626;18.866;2023-01-30T06:52:42;100842.41;;;1.88;65.77
58072;BME280;60383;46.626;18.866;2023-01-30T06:55:09;100834.97;;;2.95;62.05
58072;BME280;60383;46.626;18.866;2023-01-30T06:57:35;100831.56;;;3.20;60.10
58072;BME280;60383;46.626;18.866;2023-01-30T07:00:06;100837.00;;;2.91;60.52
58072;BME280;60383;46.626;18.866;2023-01-30T07:02:32;100841.56;;;3.05;60.14
58072;BME280;60383;46.626;18.866;2023-01-30T07:05:04;100849.81;;;3.31;60.26
58072;BME280;60383;46.626;18.866;2023-01-30T07:07:30;100837.59;;;4.06;58.82
58072;BME280;60383;46.626;18.866;2023-01-30T07:09:57;100844.19;;;4.55;56.51
58072;BME280;60383;46.626;18.866;2023-01-30T07:12:23;100829.50;;;4.19;55.37
58072;BME280;60383;46.626;18.866;2023-01-30T07:14:50;100830.59;;;4.80;53.95
58072;BME280;60383;46.626;18.866;2023-01-30T07:17:16;100835.91;;;4.43;55.32
58072;BME280;60383;46.626;18.866;2023-01-30T07:19:45;100825.03;;;5.32;53.34
58072;BME280;60383;46.626;18.866;2023-01-30T07:22:10;100826.56;;;5.60;52.08
58072;BME280;60383;46.626;18.866;2023-01-30T07:24:36;100823.56;;;5.76;51.70
58072;BME280;60383;46.626;18.866;2023-01-30T07:27:02;100821.94;;;5.12;53.03
58072;BME280;60383;46.626;18.866;2023-01-30T07:29:28;100821.88;;;4.88;53.63
58072;BME280;60383;46.626;18.866;2023-01-30T07:31:53;100820.44;;;5.08;53.09
58072;BME280;60383;46.626;18.866;2023-01-30T07:34:19;100813.78;;;5.25;51.79
58072;BME280;60383;46.626;18.866;2023-01-30T07:36:44;100822.97;;;5.84;49.57
58072;BME280;60383;46.626;18.866;2023-01-30T07:39:10;100814.78;;;5.73;49.87
58072;BME280;60383;46.626;18.866;2023-01-30T07:41:35;100812.94;;;6.90;47.85
58072;BME280;60383;46.626;18.866;2023-01-30T07:44:01;100804.53;;;6.70;46.54
58072;BME280;60383;46.626;18.866;2023-01-30T07:46:28;100795.63;;;7.90;44.38
58072;BME280;60383;46.626;18.866;2023-01-30T07:49:03;100789.94;;;8.45;43.33
58072;BME280;60383;46.626;18.866;2023-01-30T07:51:28;100787.06;;;8.37;43.32
58072;BME280;60383;46.626;18.866;2023-01-30T07:53:54;100792.22;;;7.77;44.50
58072;BME280;60383;46.626;18.866;2023-01-30T07:56:19;100795.66;;;7.35;46.16
58072;BME280;60383;46.626;18.866;2023-01-30T07:58:49;100791.34;;;7.32;46.21
58072;BME280;60383;46.626;18.866;2023-01-30T08:01:15;100790.47;;;6.07;47.51
58072;BME280;60383;46.626;18.866;2023-01-30T08:03:41;100791.44;;;6.76;47.67
58072;BME280;60383;46.626;18.866;2023-01-30T08:06:08;100789.56;;;6.76;47.56
58072;BME280;60383;46.626;18.866;2023-01-30T08:08:34;100785.25;;;6.62;48.48
58072;BME280;60383;46.626;18.866;2023-01-30T08:10:59;100788.44;;;6.56;48.84
58072;BME280;60383;46.626;18.866;2023-01-30T08:13:24;100794.63;;;6.47;48.32
58072;BME280;60383;46.626;18.866;2023-01-30T08:15:50;100798.56;;;6.43;48.88
58072;BME280;60383;46.626;18.866;2023-01-30T08:18:15;100785.94;;;5.35;50.89
58072;BME280;60383;46.626;18.866;2023-01-30T08:20:41;100783.56;;;5.30;51.16
58072;BME280;60383;46.626;18.866;2023-01-30T08:23:07;100773.75;;;4.53;52.55
58072;BME280;60383;46.626;18.866;2023-01-30T08:25:33;100776.03;;;5.09;52.12
58072;BME280;60383;46.626;18.866;2023-01-30T08:28:00;100779.56;;;4.86;52.89
58072;BME280;60383;46.626;18.866;2023-01-30T08:30:25;100771.50;;;4.34;53.79
58072;BME280;60383;46.626;18.866;2023-01-30T08:32:51;100770.94;;;4.16;55.00
58072;BME280;60383;46.626;18.866;2023-01-30T08:35:16;100766.69;;;4.51;54.84
58072;BME280;60383;46.626;18.866;2023-01-30T08:37:42;100754.34;;;4.59;54.15
58072;BME280;60383;46.626;18.866;2023-01-30T08:40:08;100742.06;;;4.67;54.20
58072;BME280;60383;46.626;18.866;2023-01-30T08:42:34;100735.34;;;4.34;54.85
58072;BME280;60383;46.626;18.866;2023-01-30T08:45:00;100729.38;;;3.90;56.14
58072;BME280;60383;46.626;18.866;2023-01-30T08:47:25;100725.19;;;4.24;55.96
58072;BME280;60383;46.626;18.866;2023-01-30T08:49:51;100712.53;;;4.62;55.80
58072;BME280;60383;46.626;18.866;2023-01-30T08:52:17;100731.75;;;4.59;54.97
58072;BME280;60383;46.626;18.866;2023-01-30T08:54:43;100723.28;;;4.51;55.19
58072;BME280;60383;46.626;18.866;2023-01-30T08:57:09;100703.00;;;4.56;55.31
58072;BME280;60383;46.626;18.866;2023-01-30T08:59:34;100696.09;;;4.39;55.91
58072;BME280;60383;46.626;18.866;2023-01-30T09:02:00;100699.81;;;4.12;56.40
58072;BME280;60383;46.626;18.866;2023-01-30T09:04:25;100695.75;;;3.66;57.19
58072;BME280;60383;46.626;18.866;2023-01-30T09:06:55;100689.91;;;3.73;57.57
58072;BME280;60383;46.626;18.866;2023-01-30T09:09:20;100678.13;;;3.87;58.04
58072;BME280;60383;46.626;18.866;2023-01-30T09:11:46;100680.28;;;3.94;58.54
58072;BME280;60383;46.626;18.866;2023-01-30T09:14:15;100688.19;;;3.84;57.35
58072;BME280;60383;46.626;18.866;2023-01-30T09:16:48;100683.63;;;3.85;58.06
58072;BME280;60383;46.626;18.866;2023-01-30T09:19:26;100673.38;;;3.90;57.50
58072;BME280;60383;46.626;18.866;2023-01-30T09:21:53;100673.66;;;3.73;58.21
58072;BME280;60383;46.626;18.866;2023-01-30T09:24:20;100678.97;;;3.74;57.99
58072;BME280;60383;46.626;18.866;2023-01-30T09:26:50;100670.84;;;3.74;58.21
58072;BME280;60383;46.626;18.866;2023-01-30T09:29:16;100683.53;;;3.74;58.84
58072;BME280;60383;46.626;18.866;2023-01-30T09:31:41;100685.63;;;3.83;58.38
58072;BME280;60383;46.626;18.866;2023-01-30T09:34:07;100673.44;;;3.89;59.28
58072;BME280;60383;46.626;18.866;2023-01-30T09:36:32;100676.88;;;3.52;58.14
58072;BME280;60383;46.626;18.866;2023-01-30T09:38:58;100678.63;;;3.53;57.95
58072;BME280;60383;46.626;18.866;2023-01-30T09:52:39;100648.41;;;3.98;57.63
58072;BME280;60383;46.626;18.866;2023-01-30T09:55:20;100638.50;;;4.23;57.86
58072;BME280;60383;46.626;18.866;2023-01-30T09:57:47;100637.72;;;4.34;57.45
58072;BME280;60383;46.626;18.866;2023-01-30T10:00:33;100632.31;;;4.71;57.22
58072;BME280;60383;46.626;18.866;2023-01-30T10:03:17;100624.06;;;4.72;56.14
58072;BME280;60383;46.626;18.866;2023-01-30T10:05:45;100608.50;;;4.50;56.20
58072;BME280;60383;46.626;18.866;2023-01-30T10:19:53;100598.88;;;3.57;58.22
58072;BME280;60383;46.626;18.866;2023-01-30T10:25:30;100605.09;;;3.46;58.28
58072;BME280;60383;46.626;18.866;2023-01-30T10:28:13;100596.63;;;3.51;59.18
58072;BME280;60383;46.626;18.866;2023-01-30T10:30:44;100591.41;;;3.74;58.42
58072;BME280;60383;46.626;18.866;2023-01-30T10:35:59;100572.53;;;4.11;58.50
58072;BME280;60383;46.626;18.866;2023-01-30T10:38:34;100565.28;;;4.36;58.28
58072;BME280;60383;46.626;18.866;2023-01-30T10:43:57;100553.53;;;5.08;56.28
58072;BME280;60383;46.626;18.866;2023-01-30T10:49:53;100548.06;;;4.72;56.03
58072;BME280;60383;46.626;18.866;2023-01-30T10:52:41;100532.72;;;4.60;56.96
58072;BME280;60383;46.626;18.866;2023-01-30T11:00:30;100519.22;;;4.23;56.33
58072;BME280;60383;46.626;18.866;2023-01-30T11:05:39;100500.41;;;4.32;56.92
58072;BME280;60383;46.626;18.866;2023-01-30T11:08:25;100490.31;;;4.10;56.09
58072;BME280;60383;46.626;18.866;2023-01-30T11:10:52;100484.03;;;4.10;56.72
58072;BME280;60383;46.626;18.866;2023-01-30T11:13:23;100468.41;;;4.13;57.48
58072;BME280;60383;46.626;18.866;2023-01-30T11:15:53;100469.91;;;4.18;57.26
58072;BME280;60383;46.626;18.866;2023-01-30T11:18:21;100467.25;;;4.05;55.98
58072;BME280;60383;46.626;18.866;2023-01-30T11:21:09;100466.19;;;3.94;56.47
58072;BME280;60383;46.626;18.866;2023-01-30T11:23:42;100458.91;;;3.95;57.36
58072;BME280;60383;46.626;18.866;2023-01-30T11:26:32;100460.38;;;3.88;58.08
58072;BME280;60383;46.626;18.866;2023-01-30T11:28:58;100454.50;;;3.94;58.84
58072;BME280;60383;46.626;18.866;2023-01-30T11:31:27;100451.69;;;3.95;57.82
58072;BME280;60383;46.626;18.866;2023-01-30T11:34:18;100440.06;;;3.93;58.40
58072;BME280;60383;46.626;18.866;2023-01-30T11:36:45;100434.94;;;3.77;58.70
58072;BME280;60383;46.626;18.866;2023-01-30T11:41:55;100435.00;;;3.89;58.62
58072;BME280;60383;46.626;18.866;2023-01-30T11:44:35;100429.13;;;3.71;59.39
58072;BME280;60383;46.626;18.866;2023-01-30T11:47:23;100425.00;;;3.65;60.03
58072;BME280;60383;46.626;18.866;2023-01-30T11:49:49;100426.66;;;3.55;59.79
58072;BME280;60383;46.626;18.866;2023-01-30T11:52:23;100420.50;;;3.53;60.13
58072;BME280;60383;46.626;18.866;2023-01-30T11:54:50;100414.63;;;3.59;60.67
58072;BME280;60383;46.626;18.866;2023-01-30T11:57:17;100409.72;;;3.64;60.51
58072;BME280;60383;46.626;18.866;2023-01-30T12:02:20;100402.47;;;3.64;59.43
58072;BME280;60383;46.626;18.866;2023-01-30T12:04:53;100388.06;;;3.64;59.78
58072;BME280;60383;46.626;18.866;2023-01-30T12:07:34;100392.81;;;3.73;59.76
58072;BME280;60383;46.626;18.866;2023-01-30T12:10:00;100382.81;;;3.74;59.18
58072;BME280;60383;46.626;18.866;2023-01-30T12:15:21;100371.66;;;3.78;59.60
58072;BME280;60383;46.626;18.866;2023-01-30T12:23:30;100359.72;;;4.16;59.34
58072;BME280;60383;46.626;18.866;2023-01-30T12:26:05;100349.00;;;4.04;58.88
58072;BME280;60383;46.626;18.866;2023-01-30T12:31:32;100346.47;;;4.25;59.50
58072;BME280;60383;46.626;18.866;2023-01-30T12:34:01;100338.03;;;4.52;58.78
58072;BME280;60383;46.626;18.866;2023-01-30T12:47:13;100326.94;;;4.89;55.82
58072;BME280;60383;46.626;18.866;2023-01-30T12:55:14;100328.31;;;4.95;55.98
58072;BME280;60383;46.626;18.866;2023-01-30T13:03:08;100309.19;;;4.74;55.66
58072;BME280;60383;46.626;18.866;2023-01-30T13:11:52;100298.41;;;4.27;57.07
58072;BME280;60383;46.626;18.866;2023-01-30T13:14:48;100297.97;;;4.56;56.77
58072;BME280;60383;46.626;18.866;2023-01-30T13:26:10;100290.63;;;4.22;54.81
58072;BME280;60383;46.626;18.866;2023-01-30T13:28:44;100284.81;;;4.15;56.38
58072;BME280;60383;46.626;18.866;2023-01-30T13:31:14;100283.69;;;4.07;54.94
58072;BME280;60383;46.626;18.866;2023-01-30T13:33:43;100280.69;;;3.87;55.70
58072;BME280;60383;46.626;18.866;2023-01-30T13:36:22;100285.34;;;3.85;56.68
58072;BME280;60383;46.626;18.866;2023-01-30T13:39:02;100269.22;;;3.83;55.64
58072;BME280;60383;46.626;18.866;2023-01-30T13:41:33;100262.53;;;3.76;56.19
58072;BME280;60383;46.626;18.866;2023-01-30T13:44:07;100262.53;;;3.76;56.55
58072;BME280;60383;46.626;18.866;2023-01-30T13:46:38;100260.41;;;3.68;56.93
58072;BME280;60383;46.626;18.866;2023-01-30T13:49:12;100256.66;;;3.58;57.69
58072;BME280;60383;46.626;18.866;2023-01-30T13:51:46;100255.13;;;3.67;56.91
58072;BME280;60383;46.626;18.866;2023-01-30T13:54:36;100246.94;;;3.56;56.66
58072;BME280;60383;46.626;18.866;2023-01-30T13:57:44;100232.44;;;3.68;56.22
58072;BME280;60383;46.626;18.866;2023-01-30T14:00:33;100221.25;;;3.61;57.76
58072;BME280;60383;46.626;18.866;2023-01-30T14:08:22;100223.94;;;3.61;59.70
58072;BME280;60383;46.626;18.866;2023-01-30T14:10:50;100223.81;;;3.63;59.45
58072;BME280;60383;46.626;18.866;2023-01-30T14:13:16;100211.59;;;3.57;59.88
58072;BME280;60383;46.626;18.866;2023-01-30T14:15:57;100207.91;;;3.47;60.71
58072;BME280;60383;46.626;18.866;2023-01-30T14:18:26;100200.00;;;3.44;61.88
58072;BME280;60383;46.626;18.866;2023-01-30T14:21:11;100194.53;;;3.32;63.65
58072;BME280;60383;46.626;18.866;2023-01-30T14:23:39;100190.59;;;3.36;63.20
58072;BME280;60383;46.626;18.866;2023-01-30T14:26:06;100184.63;;;3.44;63.74
58072;BME280;60383;46.626;18.866;2023-01-30T14:30:58;100180.19;;;3.43;63.85
58072;BME280;60383;46.626;18.866;2023-01-30T14:38:34;100181.56;;;3.49;63.94
58072;BME280;60383;46.626;18.866;2023-01-30T14:48:44;100174.78;;;3.43;62.98
58072;BME280;60383;46.626;18.866;2023-01-30T14:51:34;100172.06;;;3.43;63.56
58072;BME280;60383;46.626;18.866;2023-01-30T14:56:45;100168.09;;;3.36;63.03
58072;BME280;60383;46.626;18.866;2023-01-30T14:59:18;100170.59;;;3.39;62.32
58072;BME280;60383;46.626;18.866;2023-01-30T15:02:08;100164.44;;;3.13;63.76
58072;BME280;60383;46.626;18.866;2023-01-30T15:07:45;100161.78;;;3.24;63.98
58072;BME280;60383;46.626;18.866;2023-01-30T15:13:35;100163.84;;;3.20;64.02
58072;BME280;60383;46.626;18.866;2023-01-30T15:19:07;100168.28;;;3.22;63.65
58072;BME280;60383;46.626;18.866;2023-01-30T15:32:41;100162.03;;;3.21;65.34
58072;BME280;60383;46.626;18.866;2023-01-30T15:42:52;100189.13;;;3.32;65.04
58072;BME280;60383;46.626;18.866;2023-01-30T15:51:15;100176.81;;;3.28;65.35
58072;BME280;60383;46.626;18.866;2023-01-30T15:53:46;100186.41;;;3.32;65.80
58072;BME280;60383;46.626;18.866;2023-01-30T15:56:21;100192.66;;;3.22;66.03